createdAt,value
2022-09-20T00:01:32.407Z,1.30
2022-09-20T00:04:01.407Z,1.02
2022-09-20T00:06:31.255Z,0.88
2022-09-20T00:08:59.694Z,1.08
2022-09-20T00:11:28.738Z,1.90
2022-09-20T00:13:57.217Z,1.30
2022-09-20T00:16:32.962Z,1.10
2022-09-20T00:19:03.826Z,1.58
2022-09-20T00:21:32.144Z,0.95
2022-09-20T00:23:58.979Z,1.55
2022-09-20T00:26:27.522Z,1.15
2022-09-20T00:28:55.045Z,1.05
2022-09-20T00:31:21.908Z,1.10
2022-09-20T00:34:07.301Z,1.80
2022-09-20T00:36:33.937Z,1.45
2022-09-20T00:39:01.995Z,1.20
2022-09-20T00:41:30.135Z,0.85
2022-09-20T00:43:57.209Z,0.95
2022-09-20T00:46:35.265Z,1.58
2022-09-20T00:49:12.020Z,1.05
2022-09-20T00:54:10.796Z,1.50
2022-09-20T00:56:41.562Z,0.90
2022-09-20T00:59:26.637Z,0.60
2022-09-20T01:02:03.125Z,1.00
2022-09-20T01:04:30.412Z,1.08
2022-09-20T01:07:00.789Z,0.82
2022-09-20T01:09:27.419Z,0.80
2022-09-20T01:11:56.825Z,1.17
2022-09-20T01:14:26.731Z,1.15
2022-09-20T01:16:56.540Z,0.77
2022-09-20T01:19:57.165Z,0.98
2022-09-20T01:22:49.071Z,0.73
2022-09-20T01:25:44.938Z,0.70
2022-09-20T01:28:11.573Z,0.95
2022-09-20T01:30:44.251Z,0.55
2022-09-20T01:33:28.698Z,1.05
2022-09-20T01:35:58.842Z,0.90
2022-09-20T01:38:28.232Z,1.10
2022-09-20T01:41:12.387Z,0.82
2022-09-20T01:44:07.048Z,0.73
2022-09-20T01:46:36.160Z,0.98
2022-09-20T01:49:20.511Z,1.23
2022-09-20T01:52:24.174Z,1.17
2022-09-20T01:55:11.962Z,1.70
2022-09-20T01:57:38.402Z,0.80
2022-09-20T02:00:13.124Z,0.77
2022-09-20T02:02:51.500Z,1.40
2022-09-20T02:05:18.069Z,1.13
2022-09-20T02:08:03.253Z,1.05
2022-09-20T02:10:35.933Z,0.93
2022-09-20T02:13:31.093Z,0.90
2022-09-20T02:16:22.549Z,1.15
2022-09-20T02:19:08.059Z,1.25
2022-09-20T02:22:11.626Z,1.00
2022-09-20T02:25:04.690Z,1.00
2022-09-20T02:27:50.019Z,1.48
2022-09-20T02:30:41.176Z,0.98
2022-09-20T02:33:51.036Z,1.10
2022-09-20T02:36:20.568Z,1.08
2022-09-20T02:39:15.755Z,1.10
2022-09-20T02:41:48.414Z,1.13
2022-09-20T02:44:46.470Z,1.55
2022-09-20T02:47:41.405Z,1.38
2022-09-20T02:50:23.146Z,1.05
2022-09-20T02:53:05.464Z,0.70
2022-09-20T02:55:32.048Z,0.93
2022-09-20T02:58:21.454Z,3.65
2022-09-20T03:01:17.525Z,0.82
2022-09-20T03:03:53.110Z,1.20
2022-09-20T03:06:19.628Z,1.27
2022-09-20T03:09:25.919Z,1.23
2022-09-20T03:12:29.618Z,1.02
2022-09-20T03:15:10.623Z,1.50
2022-09-20T03:18:00.759Z,1.40
2022-09-20T03:20:39.433Z,0.70
2022-09-20T03:23:37.060Z,1.35
2022-09-20T03:26:28.381Z,0.98
2022-09-20T03:29:21.046Z,0.85
2022-09-20T03:32:08.853Z,1.02
2022-09-20T03:34:59.738Z,1.02
2022-09-20T03:38:00.180Z,1.02
2022-09-20T03:40:33.950Z,1.23
2022-09-20T03:43:21.057Z,1.20
2022-09-20T03:46:04.134Z,1.45
2022-09-20T03:48:37.476Z,1.00
2022-09-20T03:51:13.090Z,1.55
2022-09-20T03:54:06.789Z,1.42
2022-09-20T03:56:52.164Z,1.20
2022-09-20T03:59:29.938Z,1.15
2022-09-20T04:02:11.804Z,0.93
2022-09-20T04:04:56.304Z,1.20
2022-09-20T04:07:37.770Z,0.95
2022-09-20T04:10:19.171Z,0.82
2022-09-20T04:13:03.211Z,0.90
2022-09-20T04:15:41.970Z,1.73
2022-09-20T04:18:37.667Z,1.48
2022-09-20T04:21:23.894Z,1.00
2022-09-20T04:23:56.187Z,1.33
2022-09-20T04:26:28.304Z,0.93
2022-09-20T04:28:54.751Z,1.35
2022-09-20T04:31:42.996Z,1.45
2022-09-20T04:34:52.596Z,1.25
2022-09-20T04:37:33.134Z,1.20
2022-09-20T04:40:31.902Z,1.27
2022-09-20T04:43:18.768Z,1.02
2022-09-20T04:46:30.111Z,1.25
2022-09-20T04:49:05.441Z,1.52
2022-09-20T04:51:54.429Z,1.10
2022-09-20T04:54:44.654Z,0.90
2022-09-20T04:57:45.906Z,1.23
2022-09-20T05:00:19.733Z,1.10
2022-09-20T05:03:08.112Z,2.10
2022-09-20T05:05:55.937Z,0.93
2022-09-20T05:08:44.020Z,1.05
2022-09-20T05:11:31.606Z,1.00
2022-09-20T05:14:17.126Z,1.23
2022-09-20T05:17:07.200Z,1.60
2022-09-20T05:19:55.897Z,1.40
2022-09-20T05:22:50.493Z,1.10
2022-09-20T05:25:59.178Z,1.25
2022-09-20T05:28:34.269Z,1.60
2022-09-20T05:31:15.632Z,1.00
2022-09-20T05:33:57.676Z,1.13
2022-09-20T05:36:48.289Z,1.00
2022-09-20T05:39:18.534Z,0.93
2022-09-20T05:41:57.085Z,1.30
2022-09-20T05:44:23.574Z,1.52
2022-09-20T05:47:06.498Z,1.30
2022-09-20T05:49:47.107Z,1.35
2022-09-20T05:52:58.718Z,1.20
2022-09-20T05:56:02.816Z,1.33
2022-09-20T05:58:42.517Z,1.13
2022-09-20T06:01:18.932Z,1.52
2022-09-20T06:03:54.613Z,0.93
2022-09-20T06:07:00.654Z,1.27
2022-09-20T06:09:56.781Z,1.15
2022-09-20T06:12:35.745Z,1.15
2022-09-20T06:15:15.181Z,1.27
2022-09-20T06:17:51.083Z,1.33
2022-09-20T06:20:52.110Z,1.43
2022-09-20T06:23:19.010Z,1.58
2022-09-20T06:25:54.078Z,1.40
2022-09-20T06:28:23.527Z,1.67
2022-09-20T06:30:52.322Z,1.70
2022-09-20T06:33:26.823Z,1.40
2022-09-20T06:36:24.669Z,1.60
2022-09-20T06:41:56.046Z,1.48
2022-09-20T06:44:22.631Z,1.95
2022-09-20T06:46:49.428Z,1.40
2022-09-20T06:49:15.921Z,1.45
2022-09-20T06:51:43.519Z,1.10
2022-09-20T06:54:18.801Z,1.75
2022-09-20T06:56:47.398Z,1.35
2022-09-20T06:59:15.157Z,1.40
2022-09-20T07:01:42.817Z,1.63
2022-09-20T07:04:09.731Z,1.15
2022-09-20T07:06:36.369Z,1.38
2022-09-20T07:09:04.305Z,1.50
2022-09-20T07:11:32.203Z,1.83
2022-09-20T07:13:59.407Z,1.13
2022-09-20T07:16:26.553Z,1.65
2022-09-20T07:18:53.661Z,1.60
2022-09-20T07:21:21.201Z,1.37
2022-09-20T07:23:51.404Z,1.90
2022-09-20T07:26:19.984Z,1.40
2022-09-20T07:28:46.669Z,1.05
2022-09-20T07:31:13.984Z,1.25
2022-09-20T07:33:40.835Z,1.20
2022-09-20T07:36:07.755Z,1.38
2022-09-20T07:38:34.380Z,1.30
2022-09-20T07:41:02.841Z,1.30
2022-09-20T07:43:30.601Z,1.30
2022-09-20T07:45:59.434Z,1.45
2022-09-20T07:48:29.595Z,1.50
2022-09-20T07:51:08.600Z,1.63
2022-09-20T07:53:36.367Z,1.35
2022-09-20T07:56:05.046Z,1.55
2022-09-20T07:58:34.120Z,1.23
2022-09-20T08:01:09.282Z,1.75
2022-09-20T08:03:36.690Z,1.20
2022-09-20T08:06:08.934Z,2.03
2022-09-20T08:08:37.497Z,1.33
2022-09-20T08:11:06.512Z,1.42
2022-09-20T08:16:32.588Z,1.20
2022-09-20T08:19:01.313Z,1.30
2022-09-20T08:21:31.615Z,1.55
2022-09-20T08:23:59.436Z,1.25
2022-09-20T08:26:28.171Z,1.13
2022-09-20T08:28:57.443Z,1.40
2022-09-20T08:31:26.786Z,1.55
2022-09-20T08:33:54.578Z,1.00
2022-09-20T08:36:24.455Z,1.02
2022-09-20T08:42:02.964Z,1.23
2022-09-20T08:44:47.226Z,0.95
2022-09-20T08:47:25.548Z,1.23
2022-09-20T08:49:57.733Z,1.00
2022-09-20T08:52:37.001Z,1.35
2022-09-20T08:55:27.994Z,1.00
2022-09-20T08:57:57.311Z,0.60
2022-09-20T09:00:31.960Z,1.00
2022-09-20T09:03:03.813Z,0.80
2022-09-20T09:05:39.035Z,0.77
2022-09-20T09:08:16.470Z,0.80
2022-09-20T09:10:54.149Z,0.90
2022-09-20T09:13:47.636Z,1.10
2022-09-20T09:16:23.060Z,0.90
2022-09-20T09:18:53.109Z,1.00
2022-09-20T09:21:23.007Z,0.93
2022-09-20T09:24:14.467Z,0.82
2022-09-20T09:26:43.334Z,1.35
2022-09-20T09:29:23.684Z,0.77
2022-09-20T09:31:56.509Z,0.80
2022-09-20T09:34:30.607Z,1.50
2022-09-20T09:36:58.375Z,0.80
2022-09-20T09:39:33.822Z,1.20
2022-09-20T09:42:01.197Z,1.85
2022-09-20T09:44:30.638Z,0.85
2022-09-20T09:46:57.580Z,0.90
2022-09-20T09:49:36.273Z,0.95
2022-09-20T09:52:14.746Z,0.63
2022-09-20T09:54:42.206Z,1.08
2022-09-20T09:57:11.854Z,0.73
2022-09-20T09:59:49.330Z,0.85
2022-09-20T10:02:49.992Z,0.80
2022-09-20T10:05:21.297Z,0.95
2022-09-20T10:08:22.188Z,0.63
2022-09-20T10:11:13.809Z,0.98
2022-09-20T10:14:07.691Z,0.90
2022-09-20T10:17:12.276Z,1.20
2022-09-20T10:19:51.251Z,1.27
2022-09-20T10:23:07.086Z,0.90
2022-09-20T10:26:22.781Z,0.97
2022-09-20T10:29:27.009Z,0.88
2022-09-20T10:32:05.925Z,1.50
2022-09-20T10:35:07.351Z,1.17
2022-09-20T10:37:54.138Z,2.15
2022-09-20T10:41:08.334Z,1.08
2022-09-20T10:43:41.885Z,1.13
2022-09-20T10:46:31.787Z,0.98
2022-09-20T10:49:26.772Z,1.00
2022-09-20T10:52:07.487Z,0.70
2022-09-20T10:55:03.664Z,1.10
2022-09-20T10:57:58.630Z,1.20
2022-09-20T11:00:46.807Z,1.20
2022-09-20T11:03:33.192Z,0.90
2022-09-20T11:06:44.164Z,0.60
2022-09-20T11:09:17.467Z,1.20
2022-09-20T12:04:57.682Z,0.80
2022-09-20T12:07:28.911Z,1.20
2022-09-20T12:10:00.603Z,0.85
2022-09-20T12:12:39.018Z,0.60
2022-09-20T12:15:22.124Z,0.60
2022-09-20T12:17:49.656Z,1.05
2022-09-20T12:20:34.863Z,0.93
2022-09-20T12:23:38.556Z,0.60
2022-09-20T12:26:06.302Z,0.43
2022-09-20T12:28:45.187Z,0.77
2022-09-20T12:31:31.840Z,0.90
2022-09-20T12:34:10.769Z,1.42
2022-09-20T12:36:38.722Z,0.73
2022-09-20T12:39:22.402Z,0.75
2022-09-20T12:41:59.777Z,1.15
2022-09-20T12:44:43.089Z,1.13
2022-09-20T12:47:12.563Z,0.75
2022-09-20T12:50:07.830Z,0.60
2022-09-20T12:52:58.668Z,0.63
2022-09-20T12:55:46.007Z,0.60
2022-09-20T12:58:15.474Z,0.47
2022-09-20T13:00:57.463Z,0.50
2022-09-20T13:03:36.461Z,0.70
2022-09-20T13:06:06.609Z,0.60
2022-09-20T13:08:42.893Z,0.65
2022-09-20T13:11:19.163Z,0.60
2022-09-20T13:13:50.561Z,0.70
2022-09-20T13:16:30.818Z,0.38
2022-09-20T13:19:22.972Z,0.75
2022-09-20T13:22:21.035Z,0.80
2022-09-20T13:24:50.416Z,0.75
2022-09-20T13:27:22.776Z,0.80
2022-09-20T13:29:51.060Z,1.05
2022-09-20T13:32:18.751Z,0.63
2022-09-20T13:34:48.375Z,0.60
2022-09-20T13:37:23.682Z,0.85
2022-09-20T13:39:55.154Z,0.57
2022-09-20T13:42:22.132Z,0.80
2022-09-20T13:44:49.450Z,0.80
2022-09-20T13:47:28.996Z,0.60
2022-09-20T13:50:16.974Z,0.85
2022-09-20T13:52:49.415Z,0.85
2022-09-20T13:55:21.872Z,0.80
2022-09-20T13:57:48.570Z,1.02
2022-09-20T14:00:16.153Z,0.90
2022-09-20T14:02:42.834Z,0.60
2022-09-20T14:05:18.648Z,0.80
2022-09-20T14:07:47.271Z,0.65
2022-09-20T14:10:34.450Z,1.20
2022-09-20T14:13:06.805Z,0.90
2022-09-20T14:15:44.399Z,1.50
2022-09-20T14:18:19.958Z,1.20
2022-09-20T14:20:46.958Z,1.27
2022-09-20T14:23:25.612Z,1.77
2022-09-20T14:26:17.014Z,0.90
2022-09-20T14:28:44.684Z,0.90
2022-09-20T14:31:21.523Z,0.95
2022-09-20T14:33:54.916Z,0.82
2022-09-20T14:36:25.119Z,1.00
2022-09-20T14:38:55.633Z,1.40
2022-09-20T14:41:39.072Z,0.90
2022-09-20T14:44:17.382Z,1.40
2022-09-20T14:46:44.406Z,0.98
2022-09-20T14:49:20.589Z,1.20
2022-09-20T14:51:48.650Z,1.02
2022-09-20T14:54:25.698Z,1.20
2022-09-20T14:56:54.772Z,1.20
2022-09-20T14:59:36.485Z,1.05
2022-09-20T15:02:12.346Z,1.10
2022-09-20T15:04:40.646Z,1.52
2022-09-20T15:07:11.822Z,1.80
2022-09-20T15:09:38.646Z,1.42
2022-09-20T15:12:19.276Z,1.10
2022-09-20T15:14:46.667Z,1.55
2022-09-20T15:17:19.600Z,0.93
2022-09-20T15:19:47.773Z,0.80
2022-09-20T15:22:15.070Z,0.80
2022-09-20T15:24:42.155Z,1.10
2022-09-20T15:27:11.933Z,1.10
2022-09-20T15:29:38.525Z,1.25
2022-09-20T15:32:05.952Z,0.90
2022-09-20T15:34:32.782Z,0.93
2022-09-20T15:36:59.601Z,0.60
2022-09-20T15:39:26.162Z,1.00
2022-09-20T15:41:53.321Z,0.82
2022-09-20T15:44:20.419Z,0.90
2022-09-20T15:47:15.420Z,0.70
2022-09-20T15:49:49.073Z,0.93
2022-09-20T15:52:16.323Z,0.80
2022-09-20T15:54:43.448Z,0.88
2022-09-20T15:57:09.951Z,0.93
2022-09-20T15:59:36.497Z,0.90
2022-09-20T16:02:03.353Z,0.80
2022-09-20T16:04:30.068Z,1.50
2022-09-20T16:06:56.718Z,1.30
2022-09-20T16:09:23.327Z,0.82
2022-09-20T16:11:49.861Z,0.80
2022-09-20T16:14:16.492Z,0.88
2022-09-20T16:16:43.266Z,1.38
2022-09-20T16:19:23.943Z,1.00
2022-09-20T16:21:58.967Z,1.00
2022-09-20T16:24:28.423Z,1.30
2022-09-20T16:26:55.258Z,1.05
2022-09-20T16:29:22.425Z,1.42
2022-09-20T16:31:54.050Z,1.02
2022-09-20T16:34:30.641Z,0.77
2022-09-20T16:39:29.363Z,1.20
2022-09-20T16:42:04.880Z,1.17
2022-09-20T16:44:33.364Z,1.37
2022-09-20T16:46:59.977Z,1.33
2022-09-20T16:49:27.928Z,1.27
2022-09-20T16:51:54.681Z,1.20
2022-09-20T16:54:21.577Z,1.20
2022-09-20T16:56:50.735Z,1.13
2022-09-20T16:59:21.420Z,1.38
2022-09-20T17:01:49.038Z,1.45
2022-09-20T17:04:18.338Z,1.83
2022-09-20T17:06:45.815Z,1.50
2022-09-20T17:09:13.857Z,1.30
2022-09-20T17:11:44.650Z,1.60
2022-09-20T17:14:12.238Z,2.00
2022-09-20T17:16:40.562Z,1.88
2022-09-20T17:19:12.825Z,1.38
2022-09-20T17:21:43.812Z,1.48
2022-09-20T17:24:11.017Z,1.40
2022-09-20T17:26:40.929Z,1.35
2022-09-20T17:29:10.343Z,1.33
2022-09-20T17:31:39.719Z,1.40
2022-09-20T17:34:09.553Z,1.00
2022-09-20T17:36:42.663Z,1.65
2022-09-20T17:39:12.267Z,1.42
2022-09-20T17:41:40.936Z,1.55
2022-09-20T17:44:10.010Z,1.45
2022-09-20T17:46:39.360Z,1.38
2022-09-20T17:49:12.528Z,1.92
2022-09-20T17:51:45.266Z,1.67
2022-09-20T17:54:14.011Z,1.60
2022-09-20T17:56:43.545Z,1.65
2022-09-20T17:59:11.850Z,1.52
2022-09-20T18:01:40.504Z,1.80
2022-09-20T18:04:08.696Z,1.60
2022-09-20T18:06:35.548Z,1.38
2022-09-20T18:09:05.399Z,1.80
2022-09-20T18:11:38.176Z,1.90
2022-09-20T18:14:07.837Z,1.80
2022-09-20T18:16:35.211Z,1.80
2022-09-20T18:19:01.979Z,1.95
2022-09-20T18:21:31.125Z,2.10
2022-09-20T18:23:58.163Z,2.28
2022-09-20T18:26:27.690Z,2.67
2022-09-20T18:28:57.053Z,2.70
2022-09-20T18:31:27.161Z,2.35
2022-09-20T18:33:55.489Z,2.60
2022-09-20T18:36:25.677Z,2.40
2022-09-20T18:38:54.973Z,2.38
2022-09-20T18:41:25.482Z,2.80
2022-09-20T18:43:53.757Z,2.67
2022-09-20T18:46:23.721Z,2.70
2022-09-20T18:48:54.855Z,3.25
2022-09-20T18:51:22.347Z,2.60
2022-09-20T18:53:48.979Z,3.30
2022-09-20T18:56:22.647Z,3.63
2022-09-20T18:58:54.676Z,2.75
2022-09-20T19:01:49.567Z,2.55
2022-09-20T19:04:44.002Z,2.75
2022-09-20T19:07:13.703Z,2.90
2022-09-20T19:10:22.486Z,2.33
2022-09-20T19:13:04.601Z,2.33
2022-09-20T19:15:45.621Z,2.20
2022-09-20T19:18:35.479Z,2.45
2022-09-20T19:21:14.270Z,2.05
2022-09-20T19:24:08.238Z,2.53
2022-09-20T19:26:38.728Z,2.33
2022-09-20T19:29:20.050Z,2.25
2022-09-20T19:31:52.155Z,2.40
2022-09-20T19:34:27.180Z,2.08
2022-09-20T19:37:18.837Z,2.10
2022-09-20T19:39:51.600Z,2.30
2022-09-20T19:42:44.027Z,2.17
2022-09-20T19:45:22.127Z,2.10
2022-09-20T19:48:07.533Z,2.70
2022-09-20T19:50:48.796Z,2.25
2022-09-20T19:53:22.416Z,2.05
2022-09-20T19:56:24.773Z,2.30
2022-09-20T19:58:55.069Z,1.95
2022-09-20T20:01:26.150Z,1.98
2022-09-20T20:03:54.126Z,2.10
2022-09-20T20:06:30.556Z,2.22
2022-09-20T20:09:21.681Z,2.20
2022-09-20T20:12:25.709Z,2.40
2022-09-20T20:15:10.906Z,2.25
2022-09-20T20:18:31.704Z,2.75
2022-09-20T20:20:59.166Z,2.88
2022-09-20T20:24:09.060Z,3.67
2022-09-20T20:26:36.011Z,4.03
2022-09-20T20:29:02.598Z,3.83
2022-09-20T20:31:30.316Z,4.45
2022-09-20T20:33:57.263Z,4.65
2022-09-20T20:36:23.811Z,4.82
2022-09-20T20:38:52.672Z,4.28
2022-09-20T20:41:21.466Z,4.10
2022-09-20T20:43:52.020Z,4.13
2022-09-20T20:46:19.781Z,3.42
2022-09-20T20:48:47.860Z,4.00
2022-09-20T20:51:19.800Z,8.13
2022-09-20T20:53:49.130Z,8.88
2022-09-20T20:56:27.750Z,6.35
2022-09-20T20:59:00.895Z,4.75
2022-09-20T21:01:43.515Z,4.05
2022-09-20T21:04:11.402Z,3.97
2022-09-20T21:06:40.740Z,3.30
2022-09-20T21:09:11.464Z,3.63
2022-09-20T21:11:43.199Z,3.38
2022-09-20T21:14:10.707Z,3.70
2022-09-20T21:16:40.867Z,3.70
2022-09-20T21:19:09.488Z,3.22
2022-09-20T21:21:42.678Z,3.40
2022-09-20T21:24:12.221Z,2.78
2022-09-20T21:26:40.326Z,3.05
2022-09-20T21:29:09.974Z,3.60
2022-09-20T21:31:38.717Z,3.05
2022-09-20T21:34:06.847Z,3.17
2022-09-20T21:36:34.286Z,3.53
2022-09-20T21:39:01.062Z,3.70
2022-09-20T21:41:30.425Z,3.33
2022-09-20T21:44:00.179Z,3.38
2022-09-20T21:46:40.439Z,3.47
2022-09-20T21:49:11.781Z,3.38
2022-09-20T21:51:41.407Z,3.05
2022-09-20T21:54:09.065Z,3.10
2022-09-20T21:56:37.210Z,2.90
2022-09-20T21:59:06.400Z,3.15
2022-09-20T22:01:35.922Z,3.25
2022-09-20T22:04:10.945Z,3.08
2022-09-20T22:06:46.313Z,3.47
2022-09-20T22:09:15.553Z,3.20
2022-09-20T22:11:44.964Z,3.13
2022-09-20T22:14:13.530Z,3.15
2022-09-20T22:16:41.909Z,3.30
2022-09-20T22:19:10.386Z,3.20
2022-09-20T22:21:40.010Z,3.38
2022-09-20T22:24:12.054Z,3.83
2022-09-20T22:26:48.305Z,3.05
2022-09-20T22:29:15.180Z,2.35
2022-09-20T22:31:47.480Z,2.80
2022-09-20T22:34:17.077Z,2.47
2022-09-20T22:36:44.622Z,2.60
2022-09-20T22:39:12.633Z,2.50
2022-09-20T22:41:41.416Z,2.90
2022-09-20T22:44:08.533Z,2.72
2022-09-20T22:46:35.813Z,2.08
2022-09-20T22:49:05.900Z,2.40
2022-09-20T22:51:33.644Z,2.72
2022-09-20T22:54:04.723Z,2.80
2022-09-20T22:56:31.794Z,2.42
2022-09-20T22:59:02.974Z,2.72
2022-09-20T23:01:31.868Z,2.55
2022-09-20T23:04:01.087Z,2.72
2022-09-20T23:06:30.846Z,3.17
2022-09-20T23:09:00.516Z,2.80
2022-09-20T23:11:28.663Z,2.63
2022-09-20T23:14:00.971Z,2.95
2022-09-20T23:16:30.521Z,2.90
2022-09-20T23:18:59.583Z,3.03
2022-09-20T23:21:27.212Z,2.75
2022-09-20T23:23:56.139Z,3.13
2022-09-20T23:26:23.531Z,3.08
2022-09-20T23:28:56.810Z,3.15
2022-09-20T23:31:24.421Z,3.17
2022-09-20T23:33:57.002Z,3.10
2022-09-20T23:36:25.283Z,2.75
2022-09-20T23:38:52.024Z,3.05
2022-09-20T23:41:23.221Z,2.42
2022-09-20T23:43:50.055Z,2.40
2022-09-20T23:46:18.404Z,2.90
2022-09-20T23:48:45.530Z,2.50
2022-09-20T23:51:17.248Z,2.00
2022-09-20T23:53:44.565Z,2.55
2022-09-20T23:56:12.604Z,2.40
2022-09-20T23:58:42.077Z,2.20
